Time;durP1;ratioP1;P1;durP2;ratioP2;P2;SDS_P1;SDS_P2;PMS_P1;PMS_P2;Temp;Humidity;BMP_temperature;BMP_pressure;BME280_temperature;BME280_humidity;BME280_pressure;Samples;Min_cycle;Max_cycle;Signal;HPM_P1;HPM_P2
2022/01/01 00:00:49;;;;;;;;;;;6.10;85.30;;;;;;5029002;28;82122;-47
2022/01/01 00:03:15;;;;;;;;;;;6.10;85.30;;;;;;5028454;28;83598;-47
2022/01/01 00:05:40;;;;;;;;;;;6.10;85.20;;;;;;5028790;28;85821;-48
2022/01/01 00:08:07;;;;;;;;;;;6.10;85.10;;;;;;5029126;28;81933;-49
2022/01/01 00:10:33;;;;;;;;;;;6.10;85.10;;;;;;5028976;28;83789;-48
2022/01/01 00:12:59;;;;;;;;;;;6.10;85.10;;;;;;5028950;28;82920;-48
2022/01/01 00:15:25;;;;;;;;;;;6.10;85.20;;;;;;5031495;28;82106;-47
2022/01/01 00:17:50;;;;;;;;;;;6.10;85.10;;;;;;5028801;28;82946;-47
2022/01/01 00:20:16;;;;;;;;;;;6.10;85.10;;;;;;5029294;28;81357;-48
2022/01/01 00:22:42;;;;;;;;;;;6.10;85.20;;;;;;5027557;28;84661;-47
2022/01/01 00:25:08;;;;;;;;;;;6.10;85.20;;;;;;5028437;28;84482;-49
2022/01/01 00:27:34;;;;;;;;;;;6.10;85.10;;;;;;5028000;28;82939;-49
2022/01/01 00:30:00;;;;;;;;;;;6.10;85.10;;;;;;5028529;28;84871;-49
2022/01/01 00:32:25;;;;;;;;;;;6.00;85.10;;;;;;5028131;28;84944;-48
2022/01/01 00:34:51;;;;;;;;;;;6.00;85.10;;;;;;5028456;28;82162;-47
2022/01/01 00:37:17;;;;;;;;;;;6.00;85.10;;;;;;5031038;28;83916;-48
2022/01/01 00:39:43;;;;;;;;;;;6.00;85.10;;;;;;5028622;28;81994;-48
2022/01/01 00:42:08;;;;;;;;;;;6.10;85.20;;;;;;5028582;28;82401;-47
2022/01/01 00:44:34;;;;;;;;;;;6.00;85.20;;;;;;5028463;28;83172;-47
2022/01/01 00:46:59;;;;;;;;;;;6.00;85.10;;;;;;5028296;28;81994;-48
2022/01/01 00:49:25;;;;;;;;;;;6.00;85.10;;;;;;5028469;28;83060;-47
2022/01/01 00:51:51;;;;;;;;;;;6.00;85.10;;;;;;5027519;28;85579;-49
2022/01/01 00:54:16;;;;;;;;;;;6.00;85.20;;;;;;5028411;28;82140;-48
2022/01/01 00:56:42;;;;;;;;;;;6.00;85.10;;;;;;5028242;28;83947;-47
2022/01/01 00:59:07;;;;;;;;;;;6.00;85.10;;;;;;5030699;28;83830;-47
2022/01/01 01:01:33;;;;;;;;;;;6.00;85.10;;;;;;5027911;28;84401;-47
2022/01/01 01:03:58;;;;;;;;;;;5.90;85.00;;;;;;5027763;28;84643;-47
2022/01/01 01:06:24;;;;;;;;;;;6.00;84.90;;;;;;5028352;28;82068;-47
2022/01/01 01:08:51;;;;;;;;;;;6.00;85.00;;;;;;5028408;28;83362;-48
2022/01/01 01:11:17;;;;;;;;;;;5.90;85.10;;;;;;5027716;28;84428;-48
2022/01/01 01:13:45;;;;;;;;;;;5.90;85.10;;;;;;5026697;28;82111;-47
2022/01/01 01:16:11;;;;;;;;;;;5.90;85.20;;;;;;5027196;28;83019;-48
2022/01/01 01:18:36;;;;;;;;;;;5.90;85.00;;;;;;5027553;28;85026;-48
2022/01/01 01:21:02;;;;;;;;;;;5.90;85.00;;;;;;5030541;28;82059;-47
2022/01/01 01:23:28;;;;;;;;;;;5.90;85.00;;;;;;5027622;28;83903;-47
2022/01/01 01:25:55;;;;;;;;;;;5.90;85.00;;;;;;5027446;28;82207;-49
2022/01/01 01:28:21;;;;;;;;;;;5.90;85.10;;;;;;5027643;28;83780;-47
2022/01/01 01:30:47;;;;;;;;;;;5.80;85.10;;;;;;5027699;28;82919;-49
2022/01/01 01:33:13;;;;;;;;;;;5.80;85.00;;;;;;5028028;28;81354;-48
2022/01/01 01:35:38;;;;;;;;;;;5.80;85.10;;;;;;5027939;28;81833;-48
2022/01/01 01:38:04;;;;;;;;;;;5.90;85.00;;;;;;5027388;28;83492;-48
2022/01/01 01:40:29;;;;;;;;;;;5.90;85.00;;;;;;5027086;28;83048;-47
2022/01/01 01:42:55;;;;;;;;;;;5.90;85.00;;;;;;5029934;28;84902;-47
2022/01/01 01:45:23;;;;;;;;;;;5.90;84.90;;;;;;5027531;28;82277;-47
2022/01/01 01:47:49;;;;;;;;;;;5.90;85.00;;;;;;5025856;28;85391;-48
2022/01/01 01:50:16;;;;;;;;;;;5.80;85.00;;;;;;5027343;28;84807;-48
2022/01/01 01:52:44;;;;;;;;;;;5.80;85.10;;;;;;5027493;28;81968;-47
2022/01/01 01:55:11;;;;;;;;;;;5.80;85.00;;;;;;5027303;28;83460;-48
2022/01/01 01:57:39;;;;;;;;;;;5.80;85.00;;;;;;5027602;28;84280;-48
2022/01/01 02:00:09;;;;;;;;;;;5.80;85.10;;;;;;5027361;28;81926;-47
2022/01/01 02:02:35;;;;;;;;;;;5.80;85.50;;;;;;5029773;28;85045;-48
2022/01/01 02:05:00;;;;;;;;;;;5.70;85.00;;;;;;5026441;28;82927;-48
2022/01/01 02:07:26;;;;;;;;;;;5.80;85.10;;;;;;5027062;28;85340;-49
2022/01/01 02:09:52;;;;;;;;;;;5.80;85.10;;;;;;5026854;28;84849;-47
2022/01/01 02:12:17;;;;;;;;;;;5.80;85.10;;;;;;5026956;28;82216;-47
2022/01/01 02:15:27;;;;;;;;;;;5.70;85.00;;;;;;5026523;28;82242;-47
2022/01/01 02:17:36;;;;;;;;;;;5.70;85.20;;;;;;5024388;28;82344;-48
2022/01/01 02:20:21;;;;;;;;;;;5.70;85.00;;;;;;5026842;28;82069;-48
2022/01/01 02:22:47;;;;;;;;;;;5.70;84.80;;;;;;5027426;28;82876;-48
2022/01/01 02:25:13;;;;;;;;;;;5.80;84.90;;;;;;5028826;28;83516;-47
2022/01/01 02:27:39;;;;;;;;;;;5.70;84.90;;;;;;5027242;28;81818;-47
2022/01/01 02:30:05;;;;;;;;;;;5.70;85.10;;;;;;5026246;28;85386;-48
2022/01/01 02:32:31;;;;;;;;;;;5.70;85.20;;;;;;5026906;28;82204;-47
2022/01/01 02:34:56;;;;;;;;;;;5.60;85.20;;;;;;5026735;28;83924;-47
2022/01/01 02:37:22;;;;;;;;;;;5.70;85.10;;;;;;5026505;28;84212;-48
2022/01/01 02:39:49;;;;;;;;;;;5.70;85.00;;;;;;5026810;28;82633;-47
2022/01/01 02:42:18;;;;;;;;;;;5.70;85.10;;;;;;5026668;28;82829;-48
2022/01/01 02:44:43;;;;;;;;;;;5.70;84.90;;;;;;5026616;28;82207;-47
2022/01/01 02:47:09;;;;;;;;;;;5.60;85.00;;;;;;5029761;28;81300;-47
2022/01/01 02:49:34;;;;;;;;;;;5.60;85.20;;;;;;5026292;28;84704;-48
2022/01/01 02:52:00;;;;;;;;;;;5.60;85.20;;;;;;5026533;28;82104;-48
2022/01/01 02:54:25;;;;;;;;;;;5.60;85.30;;;;;;5025877;28;83861;-50
2022/01/01 02:56:51;;;;;;;;;;;5.60;85.30;;;;;;5026237;28;84734;-48
2022/01/01 02:59:17;;;;;;;;;;;5.60;85.20;;;;;;5026744;28;82247;-47
2022/01/01 03:01:42;;;;;;;;;;;5.50;85.20;;;;;;5026538;28;84012;-48
2022/01/01 03:04:08;;;;;;;;;;;5.50;85.10;;;;;;5026346;28;83825;-47
2022/01/01 03:06:34;;;;;;;;;;;5.60;85.20;;;;;;5026232;28;81972;-48
2022/01/01 03:09:00;;;;;;;;;;;5.50;85.40;;;;;;5029019;28;84040;-50
2022/01/01 03:11:25;;;;;;;;;;;5.50;85.20;;;;;;5026531;28;81376;-48
2022/01/01 03:13:51;;;;;;;;;;;5.50;85.40;;;;;;5026261;28;83229;-49
2022/01/01 03:16:16;;;;;;;;;;;5.50;85.10;;;;;;5026076;28;84344;-48
2022/01/01 03:18:42;;;;;;;;;;;5.50;85.10;;;;;;5025671;28;83051;-47
2022/01/01 03:21:08;;;;;;;;;;;5.50;85.30;;;;;;5026352;28;82988;-48
2022/01/01 03:23:34;;;;;;;;;;;5.50;85.40;;;;;;5025980;28;84403;-48
2022/01/01 03:25:59;;;;;;;;;;;5.50;85.40;;;;;;5026919;28;82007;-47
2022/01/01 03:28:25;;;;;;;;;;;5.40;85.30;;;;;;5029531;28;83904;-48
2022/01/01 03:30:51;;;;;;;;;;;5.50;85.10;;;;;;5032107;28;84299;-47
2022/01/01 03:33:17;;;;;;;;;;;5.50;85.30;;;;;;5029572;28;84224;-47
2022/01/01 03:35:43;;;;;;;;;;;5.40;85.40;;;;;;5029981;28;83557;-48
2022/01/01 03:38:08;;;;;;;;;;;5.40;85.40;;;;;;5029515;28;81868;-48
2022/01/01 03:40:34;;;;;;;;;;;5.40;85.40;;;;;;5029122;28;84158;-49
2022/01/01 03:42:59;;;;;;;;;;;5.40;85.30;;;;;;5028447;28;85464;-47
2022/01/01 03:45:25;;;;;;;;;;;5.40;85.30;;;;;;5029396;28;82093;-48
2022/01/01 03:47:50;;;;;;;;;;;5.40;85.50;;;;;;5029127;28;84228;-48
2022/01/01 03:50:16;;;;;;;;;;;5.40;85.50;;;;;;5029085;28;83439;-47
2022/01/01 03:52:42;;;;;;;;;;;5.40;85.30;;;;;;5031852;28;82057;-47
2022/01/01 03:55:08;;;;;;;;;;;5.40;85.10;;;;;;5028914;28;84420;-48
2022/01/01 03:57:33;;;;;;;;;;;5.40;85.00;;;;;;5028979;28;82020;-47
2022/01/01 04:00:00;;;;;;;;;;;5.40;84.90;;;;;;5029558;28;84010;-47
2022/01/01 04:02:25;;;;;;;;;;;5.40;84.90;;;;;;5029137;28;83385;-48
2022/01/01 04:04:51;;;;;;;;;;;5.40;85.10;;;;;;5029315;28;81949;-48
2022/01/01 04:07:17;;;;;;;;;;;5.40;84.90;;;;;;5028338;28;84737;-48
2022/01/01 04:09:43;;;;;;;;;;;5.40;84.80;;;;;;5028795;28;84440;-48
2022/01/01 04:12:08;;;;;;;;;;;5.40;84.80;;;;;;5030230;28;82891;-48
2022/01/01 04:14:34;;;;;;;;;;;5.40;84.90;;;;;;5029082;28;84335;-47
2022/01/01 04:17:00;;;;;;;;;;;5.40;84.90;;;;;;5028819;28;81941;-48
2022/01/01 04:19:36;;;;;;;;;;;5.50;84.70;;;;;;5028809;28;83883;-47
2022/01/01 04:22:01;;;;;;;;;;;5.40;84.70;;;;;;5028782;28;84577;-48
2022/01/01 04:24:27;;;;;;;;;;;5.40;84.50;;;;;;5029276;28;81431;-47
2022/01/01 04:26:53;;;;;;;;;;;5.40;84.70;;;;;;5028443;28;83757;-47
2022/01/01 04:29:18;;;;;;;;;;;5.40;84.60;;;;;;5028467;28;84494;-47
2022/01/01 04:31:44;;;;;;;;;;;5.40;84.70;;;;;;5027915;28;83117;-48
2022/01/01 04:34:09;;;;;;;;;;;5.40;84.40;;;;;;5031058;28;85037;-47
2022/01/01 04:36:37;;;;;;;;;;;5.40;84.50;;;;;;5028050;28;82211;-47
2022/01/01 04:39:03;;;;;;;;;;;5.40;84.40;;;;;;5028359;28;83887;-48
2022/01/01 04:41:29;;;;;;;;;;;5.40;84.40;;;;;;5028304;28;84204;-47
2022/01/01 04:43:54;;;;;;;;;;;5.40;84.40;;;;;;5028542;28;82165;-47
2022/01/01 04:46:20;;;;;;;;;;;5.40;84.40;;;;;;5028454;28;83320;-47
2022/01/01 04:48:45;;;;;;;;;;;5.40;84.60;;;;;;5028599;28;84088;-47
2022/01/01 04:51:11;;;;;;;;;;;5.40;84.40;;;;;;5028302;28;82096;-47
2022/01/01 04:53:39;;;;;;;;;;;5.40;84.40;;;;;;5028293;28;84350;-47
2022/01/01 04:56:07;;;;;;;;;;;5.40;84.40;;;;;;5029990;28;85349;-47
2022/01/01 04:58:33;;;;;;;;;;;5.40;84.20;;;;;;5028463;28;84878;-47
2022/01/01 05:00:58;;;;;;;;;;;5.40;84.30;;;;;;5028172;28;84756;-48
2022/01/01 05:03:24;;;;;;;;;;;5.40;84.30;;;;;;5028036;28;82041;-47
2022/01/01 05:05:49;;;;;;;;;;;5.40;84.10;;;;;;5028075;28;84124;-49
2022/01/01 05:08:15;;;;;;;;;;;5.40;84.30;;;;;;5028031;28;83159;-47
2022/01/01 05:10:41;;;;;;;;;;;5.40;84.20;;;;;;5027900;28;81993;-48
2022/01/01 05:13:06;;;;;;;;;;;5.40;84.20;;;;;;5028427;28;84628;-47
2022/01/01 05:15:32;;;;;;;;;;;5.40;84.10;;;;;;5027885;28;84514;-48
2022/01/01 05:17:57;;;;;;;;;;;5.40;84.10;;;;;;5030755;28;81974;-47
2022/01/01 05:20:23;;;;;;;;;;;5.40;84.00;;;;;;5027106;28;85324;-48
2022/01/01 05:22:49;;;;;;;;;;;5.40;84.00;;;;;;5027676;28;82071;-48
2022/01/01 05:25:14;;;;;;;;;;;5.40;84.10;;;;;;5027280;28;82985;-48
2022/01/01 05:27:40;;;;;;;;;;;5.40;84.10;;;;;;5027892;28;82375;-47
2022/01/01 05:30:06;;;;;;;;;;;5.30;84.00;;;;;;5027841;28;82010;-47
2022/01/01 05:32:32;;;;;;;;;;;5.30;84.10;;;;;;5027794;28;82789;-47
2022/01/01 05:34:58;;;;;;;;;;;5.30;84.30;;;;;;5027458;28;84246;-47
2022/01/01 05:37:24;;;;;;;;;;;5.30;84.30;;;;;;5028095;28;81045;-47
2022/01/01 05:39:49;;;;;;;;;;;5.30;84.40;;;;;;5030085;28;82054;-47
2022/01/01 05:42:15;;;;;;;;;;;5.20;84.30;;;;;;5027493;28;82103;-47
2022/01/01 05:44:41;;;;;;;;;;;5.20;84.50;;;;;;5026981;28;83797;-47
2022/01/01 05:47:06;;;;;;;;;;;5.10;84.80;;;;;;5027320;28;84551;-47
2022/01/01 05:49:32;;;;;;;;;;;5.20;84.60;;;;;;5026820;28;82235;-47
2022/01/01 05:51:57;;;;;;;;;;;5.20;84.70;;;;;;5027703;28;81845;-47
2022/01/01 05:54:23;;;;;;;;;;;5.20;84.70;;;;;;5027392;28;83184;-50
2022/01/01 05:56:48;;;;;;;;;;;5.20;84.40;;;;;;5027242;28;82095;-47
2022/01/01 05:59:14;;;;;;;;;;;5.20;84.10;;;;;;5027382;28;83615;-47
2022/01/01 06:01:39;;;;;;;;;;;5.20;84.10;;;;;;5030302;28;83887;-47
2022/01/01 06:04:05;;;;;;;;;;;5.20;84.10;;;;;;5027176;28;83383;-47
2022/01/01 06:06:30;;;;;;;;;;;5.20;84.20;;;;;;5026823;28;84978;-48
2022/01/01 06:08:56;;;;;;;;;;;5.10;84.40;;;;;;5026359;28;83033;-47
2022/01/01 06:11:21;;;;;;;;;;;5.10;84.40;;;;;;5027096;28;85043;-47
2022/01/01 06:13:47;;;;;;;;;;;5.10;84.20;;;;;;5026916;28;84772;-47
2022/01/01 06:16:12;;;;;;;;;;;5.20;84.30;;;;;;5026910;28;81698;-47
2022/01/01 06:18:38;;;;;;;;;;;5.20;84.20;;;;;;5026968;28;83903;-47
2022/01/01 06:21:04;;;;;;;;;;;5.20;84.20;;;;;;5029773;28;82903;-47
2022/01/01 06:23:29;;;;;;;;;;;5.10;84.30;;;;;;5026943;28;84040;-48
2022/01/01 06:25:55;;;;;;;;;;;5.10;84.30;;;;;;5026813;28;83794;-48
2022/01/01 06:28:20;;;;;;;;;;;5.10;84.30;;;;;;5027202;28;82054;-47
2022/01/01 06:30:46;;;;;;;;;;;5.10;84.30;;;;;;5026847;28;83734;-47
2022/01/01 06:33:15;;;;;;;;;;;5.10;84.20;;;;;;5025945;28;85531;-49
2022/01/01 06:35:45;;;;;;;;;;;5.10;84.20;;;;;;5026778;28;81814;-48
2022/01/01 06:38:11;;;;;;;;;;;5.10;84.20;;;;;;5026785;28;83846;-48
2022/01/01 06:40:39;;;;;;;;;;;5.20;84.20;;;;;;5026403;28;84692;-48
2022/01/01 06:43:05;;;;;;;;;;;5.10;84.20;;;;;;5029368;28;81996;-48
2022/01/01 06:45:30;;;;;;;;;;;5.10;84.40;;;;;;5026628;28;84697;-47
2022/01/01 06:47:56;;;;;;;;;;;5.10;84.40;;;;;;5026799;28;81995;-47
2022/01/01 06:50:21;;;;;;;;;;;5.10;84.30;;;;;;5027020;28;84152;-47
2022/01/01 06:52:47;;;;;;;;;;;5.10;84.20;;;;;;5026624;28;83246;-47
2022/01/01 06:55:12;;;;;;;;;;;5.10;84.20;;;;;;5026097;28;83187;-49
2022/01/01 06:57:39;;;;;;;;;;;5.00;84.30;;;;;;5025864;28;83847;-47
2022/01/01 07:00:05;;;;;;;;;;;5.10;84.30;;;;;;5027979;28;84721;-47
2022/01/01 07:02:30;;;;;;;;;;;5.00;84.30;;;;;;5030126;28;81703;-48
2022/01/01 07:04:56;;;;;;;;;;;5.00;84.40;;;;;;5032981;28;82264;-49
2022/01/01 07:07:21;;;;;;;;;;;5.00;84.40;;;;;;5029955;28;82173;-48
2022/01/01 07:09:47;;;;;;;;;;;5.00;84.20;;;;;;5029731;28;84018;-50
2022/01/01 07:12:12;;;;;;;;;;;5.00;84.00;;;;;;5026077;28;89631;-48
2022/01/01 07:14:38;;;;;;;;;;;5.00;84.20;;;;;;5026822;28;86273;-48
2022/01/01 07:17:03;;;;;;;;;;;5.00;84.10;;;;;;5026462;28;88701;-47
2022/01/01 07:19:29;;;;;;;;;;;5.00;84.20;;;;;;5025939;28;89762;-47
2022/01/01 07:21:59;;;;;;;;;;;5.00;84.20;;;;;;5025646;28;88115;-47
2022/01/01 07:24:25;;;;;;;;;;;5.00;84.30;;;;;;5026345;28;89664;-48
2022/01/01 07:26:51;;;;;;;;;;;4.90;84.40;;;;;;5028360;28;90069;-47
2022/01/01 07:29:16;;;;;;;;;;;5.00;84.30;;;;;;5026195;28;89640;-48
2022/01/01 07:31:42;;;;;;;;;;;5.00;84.30;;;;;;5025830;28;89703;-48
2022/01/01 07:34:07;;;;;;;;;;;5.00;84.10;;;;;;5026242;28;87036;-47
2022/01/01 07:36:33;;;;;;;;;;;5.00;84.40;;;;;;5026217;28;88754;-47
2022/01/01 07:38:59;;;;;;;;;;;4.90;84.40;;;;;;5026078;28;88656;-48
2022/01/01 07:41:24;;;;;;;;;;;5.00;84.30;;;;;;5026317;28;87165;-50
2022/01/01 07:43:50;;;;;;;;;;;5.00;84.20;;;;;;5026416;28;87590;-48
2022/01/01 07:46:15;;;;;;;;;;;5.00;84.10;;;;;;5025047;28;90013;-50
2022/01/01 07:48:41;;;;;;;;;;;5.00;84.30;;;;;;5028862;28;87061;-47
2022/01/01 07:51:06;;;;;;;;;;;4.90;84.40;;;;;;5025508;28;89718;-47
2022/01/01 07:53:32;;;;;;;;;;;5.00;84.40;;;;;;5025921;28;86934;-46
2022/01/01 07:55:57;;;;;;;;;;;4.90;84.40;;;;;;5026025;28;88751;-47
2022/01/01 07:58:23;;;;;;;;;;;4.90;84.50;;;;;;5025431;28;90508;-49
2022/01/01 08:00:48;;;;;;;;;;;4.90;84.90;;;;;;5025956;28;87141;-47
2022/01/01 08:03:14;;;;;;;;;;;4.80;85.00;;;;;;5026492;28;86633;-49
2022/01/01 08:05:40;;;;;;;;;;;4.80;85.10;;;;;;5025385;28;89461;-48
2022/01/01 08:08:05;;;;;;;;;;;4.80;85.00;;;;;;5025691;28;87121;-48
2022/01/01 08:10:31;;;;;;;;;;;4.80;85.10;;;;;;5027447;28;87820;-48
2022/01/01 08:12:57;;;;;;;;;;;4.90;84.50;;;;;;5024896;28;86978;-48
2022/01/01 08:15:23;;;;;;;;;;;4.90;84.80;;;;;;5025830;28;87148;-47
2022/01/01 08:17:48;;;;;;;;;;;4.90;84.60;;;;;;5025155;28;89215;-48
2022/01/01 08:20:14;;;;;;;;;;;4.90;84.60;;;;;;5025777;28;87024;-48
2022/01/01 08:22:39;;;;;;;;;;;4.90;84.60;;;;;;5025368;28;89258;-47
2022/01/01 08:25:05;;;;;;;;;;;4.80;84.90;;;;;;5024896;28;89510;-48
2022/01/01 08:27:31;;;;;;;;;;;4.90;85.30;;;;;;5025461;28;86465;-47
2022/01/01 08:29:56;;;;;;;;;;;4.90;84.90;;;;;;5027895;28;88367;-48
2022/01/01 08:32:22;;;;;;;;;;;4.80;85.10;;;;;;5025216;28;87658;-48
2022/01/01 08:34:47;;;;;;;;;;;4.80;85.00;;;;;;5024790;28;88616;-48
2022/01/01 08:37:13;;;;;;;;;;;4.80;85.00;;;;;;5024702;28;89197;-47
2022/01/01 08:39:39;;;;;;;;;;;4.80;84.80;;;;;;5024836;28;87306;-47
2022/01/01 08:42:05;;;;;;;;;;;4.80;85.20;;;;;;5025128;28;88658;-48
2022/01/01 08:44:31;;;;;;;;;;;4.90;84.90;;;;;;5024773;28;88846;-49
2022/01/01 08:46:57;;;;;;;;;;;4.90;84.90;;;;;;5024987;28;86876;-50
2022/01/01 08:49:22;;;;;;;;;;;4.90;84.80;;;;;;5024963;28;89049;-47
2022/01/01 08:51:48;;;;;;;;;;;4.90;85.00;;;;;;5027842;28;89059;-49
2022/01/01 08:54:14;;;;;;;;;;;4.80;84.90;;;;;;5024946;28;87903;-47
2022/01/01 08:56:40;;;;;;;;;;;4.90;84.90;;;;;;5024433;28;89541;-48
2022/01/01 08:59:06;;;;;;;;;;;4.90;84.70;;;;;;5024233;28;87970;-49
2022/01/01 09:01:31;;;;;;;;;;;4.90;84.80;;;;;;5024947;28;88912;-48
2022/01/01 09:03:57;;;;;;;;;;;4.90;84.80;;;;;;5024421;28;88969;-47
2022/01/01 09:06:23;;;;;;;;;;;4.90;84.80;;;;;;5024595;28;87198;-47
2022/01/01 09:08:49;;;;;;;;;;;4.90;84.50;;;;;;5024632;28;88962;-47
2022/01/01 09:11:14;;;;;;;;;;;4.90;84.70;;;;;;5024570;28;89415;-47
2022/01/01 09:13:43;;;;;;;;;;;4.90;84.80;;;;;;5027650;28;87146;-48
2022/01/01 09:16:10;;;;;;;;;;;4.90;84.70;;;;;;5024790;28;88852;-47
2022/01/01 09:18:37;;;;;;;;;;;4.90;84.70;;;;;;5024638;28;87140;-50
2022/01/01 09:21:02;;;;;;;;;;;4.90;84.80;;;;;;5024573;28;89301;-49
2022/01/01 09:23:28;;;;;;;;;;;4.90;84.90;;;;;;5023567;28;88601;-49
2022/01/01 09:25:53;;;;;;;;;;;4.90;84.90;;;;;;5024205;28;87157;-48
2022/01/01 09:28:19;;;;;;;;;;;4.90;84.80;;;;;;5024189;28;88925;-48
2022/01/01 09:30:45;;;;;;;;;;;4.90;84.90;;;;;;5024146;28;89736;-47
2022/01/01 09:33:12;;;;;;;;;;;4.90;84.90;;;;;;5024208;28;87218;-47
2022/01/01 09:35:38;;;;;;;;;;;4.90;85.10;;;;;;5026878;28;88660;-47
2022/01/01 09:38:03;;;;;;;;;;;4.90;85.40;;;;;;5024217;28;87053;-48
2022/01/01 09:40:29;;;;;;;;;;;4.90;85.00;;;;;;5024745;28;88027;-48
2022/01/01 09:42:55;;;;;;;;;;;4.90;85.20;;;;;;5024177;28;87154;-48
2022/01/01 09:45:20;;;;;;;;;;;4.90;85.10;;;;;;5024326;28;87097;-48
2022/01/01 09:47:47;;;;;;;;;;;4.90;85.50;;;;;;5023518;28;87934;-48
2022/01/01 09:50:12;;;;;;;;;;;4.90;85.50;;;;;;5023682;28;89479;-47
2022/01/01 09:52:38;;;;;;;;;;;4.90;85.70;;;;;;5023982;28;87128;-47
2022/01/01 09:55:04;;;;;;;;;;;4.90;85.70;;;;;;5024005;28;89128;-48
2022/01/01 09:57:30;;;;;;;;;;;4.90;85.70;;;;;;5026538;28;89968;-49
2022/01/01 09:59:55;;;;;;;;;;;4.80;85.90;;;;;;5023935;28;87949;-48
2022/01/01 10:02:21;;;;;;;;;;;4.90;85.80;;;;;;5023607;28;88759;-47
2022/01/01 10:04:52;;;;;;;;;;;4.80;85.70;;;;;;5024212;28;86436;-47
2022/01/01 10:07:18;;;;;;;;;;;4.80;86.00;;;;;;5023918;28;88314;-47
2022/01/01 10:09:43;;;;;;;;;;;4.90;86.20;;;;;;5023331;28;89895;-48
2022/01/01 10:12:10;;;;;;;;;;;4.80;86.40;;;;;;5023072;28;88069;-47
2022/01/01 10:14:36;;;;;;;;;;;4.80;86.40;;;;;;5023870;28;89870;-48
2022/01/01 10:17:07;;;;;;;;;;;4.80;86.40;;;;;;5023384;28;89539;-47
2022/01/01 10:19:32;;;;;;;;;;;4.90;86.40;;;;;;5026695;28;86837;-47
2022/01/01 10:22:02;;;;;;;;;;;4.90;86.80;;;;;;5022985;28;89111;-47
2022/01/01 10:27:42;;;;;;;;;;;4.90;86.70;;;;;;5023467;28;87071;-49
2022/01/01 10:29:57;;;;;;;;;;;4.90;86.90;;;;;;5023114;28;86443;-48
2022/01/01 10:32:24;;;;;;;;;;;4.90;86.70;;;;;;5023197;28;87113;-47
2022/01/01 10:34:49;;;;;;;;;;;4.90;87.10;;;;;;5022860;28;88827;-48
2022/01/01 10:37:15;;;;;;;;;;;4.90;87.10;;;;;;5022370;28;90516;-48
2022/01/01 10:39:47;;;;;;;;;;;4.90;87.30;;;;;;5026281;28;86977;-47
2022/01/01 10:42:13;;;;;;;;;;;4.90;87.30;;;;;;5023306;28;88092;-47
2022/01/01 10:44:38;;;;;;;;;;;5.00;87.30;;;;;;5023139;28;87115;-48
2022/01/01 10:47:05;;;;;;;;;;;5.00;87.20;;;;;;5023054;28;88967;-47
2022/01/01 10:52:19;;;;;;;;;;;5.00;87.30;;;;;;5023238;28;87084;-48
2022/01/01 10:54:49;;;;;;;;;;;5.00;87.40;;;;;;5023741;28;88607;-47
2022/01/01 10:57:20;;;;;;;;;;;5.00;87.30;;;;;;5022777;28;89599;-48
2022/01/01 10:59:45;;;;;;;;;;;5.10;87.40;;;;;;5022956;28;87034;-47
2022/01/01 11:02:11;;;;;;;;;;;5.00;87.90;;;;;;5024977;28;88461;-47
2022/01/01 11:04:36;;;;;;;;;;;5.10;87.40;;;;;;5023023;28;87085;-48
2022/01/01 11:07:02;;;;;;;;;;;5.10;87.60;;;;;;5023009;28;89064;-49
2022/01/01 11:09:29;;;;;;;;;;;5.10;87.60;;;;;;5022617;28;89616;-48
2022/01/01 11:12:02;;;;;;;;;;;5.10;87.50;;;;;;5022925;28;87093;-50
2022/01/01 11:14:28;;;;;;;;;;;5.10;87.80;;;;;;5022878;28;88938;-47
2022/01/01 11:16:55;;;;;;;;;;;5.20;88.20;;;;;;5022467;28;89550;-47
2022/01/01 11:19:21;;;;;;;;;;;5.20;87.70;;;;;;5023383;28;86267;-49
2022/01/01 11:21:47;;;;;;;;;;;5.10;88.10;;;;;;5022929;28;88394;-51
2022/01/01 11:24:13;;;;;;;;;;;5.10;88.40;;;;;;5025549;28;90098;-49
2022/01/01 11:26:40;;;;;;;;;;;5.10;88.20;;;;;;5021854;28;88346;-48
2022/01/01 11:29:06;;;;;;;;;;;5.20;88.40;;;;;;5022289;28;89472;-50
2022/01/01 11:31:31;;;;;;;;;;;5.10;88.60;;;;;;5022964;28;87110;-47
2022/01/01 11:34:00;;;;;;;;;;;5.10;88.80;;;;;;5022798;28;88446;-49
2022/01/01 11:36:28;;;;;;;;;;;5.10;88.90;;;;;;5022379;28;89349;-47
2022/01/01 11:38:54;;;;;;;;;;;5.10;88.80;;;;;;5022600;28;87080;-48
2022/01/01 11:41:19;;;;;;;;;;;5.10;88.60;;;;;;5022613;28;88788;-47
2022/01/01 11:43:46;;;;;;;;;;;5.20;89.00;;;;;;5022781;28;87853;-48
2022/01/01 11:46:12;;;;;;;;;;;5.20;89.60;;;;;;5025770;28;87099;-47
2022/01/01 11:48:51;;;;;;;;;;;5.20;89.10;;;;;;5025525;28;88462;-50
2022/01/01 11:51:36;;;;;;;;;;;5.20;89.40;;;;;;5025377;28;88005;-47
2022/01/01 11:54:09;;;;;;;;;;;5.20;89.00;;;;;;5025821;28;89797;-48
2022/01/01 11:57:05;;;;;;;;;;;5.20;89.00;;;;;;5025561;28;88241;-48
2022/01/01 11:59:37;;;;;;;;;;;5.20;89.10;;;;;;5016704;27;87097;-47
2022/01/01 12:02:04;;;;;;;;;;;5.20;89.30;;;;;;5025769;28;88927;-47
2022/01/01 12:04:33;;;;;;;;;;;5.20;89.30;;;;;;5025248;28;89241;-48
2022/01/01 12:07:00;;;;;;;;;;;5.20;89.50;;;;;;5025898;28;87007;-47
2022/01/01 12:09:26;;;;;;;;;;;5.20;89.50;;;;;;5028537;28;88851;-47
2022/01/01 12:12:00;;;;;;;;;;;5.20;89.30;;;;;;5025473;28;87113;-46
2022/01/01 12:14:30;;;;;;;;;;;5.20;89.30;;;;;;5025628;28;89247;-49
2022/01/01 12:16:56;;;;;;;;;;;5.20;89.50;;;;;;5024291;28;89593;-47
2022/01/01 12:19:23;;;;;;;;;;;5.20;89.40;;;;;;5025486;28;87147;-48
2022/01/01 12:21:59;;;;;;;;;;;5.30;89.40;;;;;;5025522;28;88692;-48
2022/01/01 12:24:26;;;;;;;;;;;5.30;89.40;;;;;;5025313;28;89966;-48
2022/01/01 12:26:53;;;;;;;;;;;5.30;89.90;;;;;;5025113;28;87095;-48
2022/01/01 12:29:24;;;;;;;;;;;5.30;89.50;;;;;;5027866;28;88586;-47
2022/01/01 12:31:56;;;;;;;;;;;5.30;89.70;;;;;;5025311;28;87099;-47
2022/01/01 12:34:22;;;;;;;;;;;5.30;89.50;;;;;;5025941;28;88735;-47
2022/01/01 12:36:52;;;;;;;;;;;5.30;89.50;;;;;;5024987;28;89228;-47
2022/01/01 12:39:17;;;;;;;;;;;5.30;89.70;;;;;;5025462;28;87096;-48
2022/01/01 12:41:46;;;;;;;;;;;5.40;89.20;;;;;;5024628;28;89228;-47
2022/01/01 12:44:12;;;;;;;;;;;5.40;89.80;;;;;;5024349;28;89390;-48
2022/01/01 12:46:48;;;;;;;;;;;5.40;89.80;;;;;;5024978;28;87143;-47
2022/01/01 12:49:14;;;;;;;;;;;5.40;90.00;;;;;;5024846;28;89185;-48
2022/01/01 12:51:40;;;;;;;;;;;5.40;90.20;;;;;;5027793;28;87949;-49
2022/01/01 12:54:06;;;;;;;;;;;5.40;90.10;;;;;;5025035;28;88880;-47
2022/01/01 12:56:33;;;;;;;;;;;5.40;90.40;;;;;;5024858;28;87643;-47
2022/01/01 12:59:00;;;;;;;;;;;5.30;89.90;;;;;;5024965;28;86368;-47
2022/01/01 13:01:29;;;;;;;;;;;5.40;90.50;;;;;;5024989;28;87671;-47
2022/01/01 13:03:56;;;;;;;;;;;5.40;90.60;;;;;;5024470;28;89330;-47
2022/01/01 13:06:29;;;;;;;;;;;5.50;90.50;;;;;;5022729;28;88115;-48
2022/01/01 13:08:57;;;;;;;;;;;5.50;90.40;;;;;;5024511;28;89826;-47
2022/01/01 13:11:23;;;;;;;;;;;5.50;90.40;;;;;;5023971;28;91839;-47
2022/01/01 13:13:48;;;;;;;;;;;5.50;90.30;;;;;;5027434;28;87046;-47
2022/01/01 13:16:14;;;;;;;;;;;5.50;90.30;;;;;;5024446;28;87682;-48
2022/01/01 13:18:39;;;;;;;;;;;5.50;90.30;;;;;;5024755;28;87127;-49
2022/01/01 13:21:05;;;;;;;;;;;5.60;90.30;;;;;;5024731;28;88847;-46
2022/01/01 13:23:31;;;;;;;;;;;5.60;90.30;;;;;;5024834;28;88708;-47
2022/01/01 13:25:57;;;;;;;;;;;5.60;90.40;;;;;;5023771;28;87054;-47
2022/01/01 13:28:24;;;;;;;;;;;5.60;90.40;;;;;;5024257;28;88925;-47
2022/01/01 13:30:50;;;;;;;;;;;5.60;90.50;;;;;;5023215;28;90386;-47
2022/01/01 13:33:16;;;;;;;;;;;5.60;90.30;;;;;;5024333;28;87187;-47
2022/01/01 13:35:49;;;;;;;;;;;5.60;90.30;;;;;;5026776;28;88887;-47
2022/01/01 13:38:15;;;;;;;;;;;5.60;90.30;;;;;;5024337;28;87032;-47
2022/01/01 13:40:45;;;;;;;;;;;5.70;90.40;;;;;;5024252;28;86977;-48
2022/01/01 13:43:11;;;;;;;;;;;5.70;90.30;;;;;;5023890;28;89491;-51
2022/01/01 13:45:37;;;;;;;;;;;5.70;90.20;;;;;;5024206;28;87118;-47
2022/01/01 13:48:09;;;;;;;;;;;5.70;90.20;;;;;;5024695;28;88730;-47
2022/01/01 13:50:53;;;;;;;;;;;5.70;90.20;;;;;;5023626;28;89575;-47
2022/01/01 13:53:18;;;;;;;;;;;5.70;90.20;;;;;;5023868;28;87167;-47
2022/01/01 13:55:51;;;;;;;;;;;5.70;90.20;;;;;;5023593;28;89380;-47
2022/01/01 13:58:18;;;;;;;;;;;5.80;90.20;;;;;;5026602;28;87252;-48
2022/01/01 14:00:53;;;;;;;;;;;5.80;90.20;;;;;;5023871;28;89257;-49
2022/01/01 14:03:23;;;;;;;;;;;5.80;90.20;;;;;;5023553;28;88324;-47
2022/01/01 14:05:50;;;;;;;;;;;5.80;90.20;;;;;;5023751;28;87230;-47
2022/01/01 14:08:17;;;;;;;;;;;5.80;90.10;;;;;;5023773;28;88824;-47
2022/01/01 14:10:50;;;;;;;;;;;5.80;90.10;;;;;;5022581;28;89450;-48
2022/01/01 14:13:25;;;;;;;;;;;5.80;90.20;;;;;;5024273;28;86129;-48
2022/01/01 14:15:50;;;;;;;;;;;5.80;90.20;;;;;;5023889;28;88269;-47
2022/01/01 14:18:24;;;;;;;;;;;5.80;90.20;;;;;;5023020;28;88787;-48
2022/01/01 14:20:52;;;;;;;;;;;5.80;90.20;;;;;;5026421;28;87936;-47
2022/01/01 14:23:28;;;;;;;;;;;5.80;90.20;;;;;;5023323;28;89593;-47
2022/01/01 14:25:54;;;;;;;;;;;5.90;90.20;;;;;;5023025;28;87104;-47
2022/01/01 14:28:20;;;;;;;;;;;5.90;90.20;;;;;;5023620;28;88641;-47
2022/01/01 14:30:49;;;;;;;;;;;5.90;90.20;;;;;;5022907;28;89692;-47
2022/01/01 14:33:15;;;;;;;;;;;5.90;90.30;;;;;;5023454;28;87203;-47